Time;durP1;ratioP1;P1;durP2;ratioP2;P2;SDS_P1;SDS_P2;PMS_P1;PMS_P2;Temp;Humidity;BMP_temperature;BMP_pressure;BME280_temperature;BME280_humidity;BME280_pressure;Samples;Min_cycle;Max_cycle;Signal;HPM_P1;HPM_P2
2021/04/16 00:01:50;;;;;;;1.65;0.90;;;1.40;85.50;;;;;;4976140;28;20030;-75
2021/04/16 00:04:16;;;;;;;2.72;0.95;;;1.40;85.50;;;;;;4975997;28;20046;-74
2021/04/16 00:06:42;;;;;;;3.15;1.20;;;1.50;85.60;;;;;;4976269;28;20393;-74
2021/04/16 00:09:09;;;;;;;3.30;1.10;;;1.50;85.40;;;;;;4975950;28;20043;-75
2021/04/16 00:11:35;;;;;;;6.13;2.20;;;1.60;85.40;;;;;;4975314;28;20046;-75
2021/04/16 00:14:02;;;;;;;2.25;1.33;;;1.60;85.60;;;;;;4975988;28;20035;-75
2021/04/16 00:16:29;;;;;;;2.50;0.95;;;1.60;86.20;;;;;;4975416;28;20038;-75
2021/04/16 00:18:56;;;;;;;2.00;0.80;;;1.60;86.60;;;;;;4975722;28;20047;-74
2021/04/16 00:21:25;;;;;;;2.95;1.00;;;1.60;87.50;;;;;;4974756;28;20039;-74
2021/04/16 00:23:51;;;;;;;2.65;1.13;;;1.60;88.20;;;;;;4975926;28;20392;-76
2021/04/16 00:26:18;;;;;;;3.33;1.00;;;1.60;87.90;;;;;;4975358;28;20511;-74
2021/04/16 00:28:44;;;;;;;1.88;1.00;;;1.60;87.90;;;;;;4975642;28;20046;-74
2021/04/16 00:31:17;;;;;;;4.20;3.65;;;1.70;87.80;;;;;;4984054;28;20035;-75
2021/04/16 00:33:44;;;;;;;2.67;1.27;;;1.70;87.50;;;;;;4980792;28;20031;-75
2021/04/16 00:36:11;;;;;;;4.20;1.23;;;1.80;87.60;;;;;;4973311;28;20049;-74
2021/04/16 00:38:37;;;;;;;5.22;1.25;;;1.80;86.70;;;;;;4986316;28;20030;-75
2021/04/16 00:41:07;;;;;;;4.15;1.20;;;1.90;86.50;;;;;;4975621;28;20376;-75
2021/04/16 00:43:36;;;;;;;3.28;1.27;;;1.80;86.90;;;;;;4985342;28;20034;-75
2021/04/16 00:46:11;;;;;;;2.70;1.38;;;1.90;87.10;;;;;;4978764;28;20073;-75
2021/04/16 00:48:42;;;;;;;2.70;1.27;;;1.80;87.30;;;;;;4987530;28;20384;-75
2021/04/16 00:51:15;;;;;;;5.65;1.42;;;1.80;88.10;;;;;;4972201;28;20043;-75
2021/04/16 00:53:42;;;;;;;2.80;1.45;;;1.80;88.20;;;;;;4985663;28;20421;-74
2021/04/16 00:56:08;;;;;;;2.33;1.15;;;1.80;88.60;;;;;;4973220;28;20034;-75
2021/04/16 00:58:35;;;;;;;3.63;1.60;;;1.70;89.00;;;;;;4974973;28;20030;-75
2021/04/16 01:01:03;;;;;;;4.25;1.58;;;1.70;89.50;;;;;;4975220;28;20037;-75
2021/04/16 01:03:30;;;;;;;4.80;1.50;;;1.80;89.90;;;;;;4974835;28;20030;-74
2021/04/16 01:06:00;;;;;;;3.33;1.30;;;1.80;89.90;;;;;;4972752;28;20046;-75
2021/04/16 01:08:27;;;;;;;3.65;1.40;;;1.80;90.10;;;;;;4975595;28;20424;-76
2021/04/16 01:10:53;;;;;;;2.20;1.15;;;1.70;90.40;;;;;;4978049;28;20040;-76
2021/04/16 01:13:22;;;;;;;2.83;1.85;;;1.80;90.80;;;;;;4973671;28;20046;-76
2021/04/16 01:15:53;;;;;;;2.40;1.48;;;1.90;90.70;;;;;;4983123;28;20392;-75
2021/04/16 01:18:23;;;;;;;7.13;2.03;;;1.90;90.60;;;;;;4979123;28;20372;-75
2021/04/16 01:20:52;;;;;;;3.42;1.50;;;1.90;90.60;;;;;;4987680;28;20022;-74
2021/04/16 01:23:32;;;;;;;4.15;2.00;;;1.90;90.70;;;;;;4974280;28;20030;-74
2021/04/16 01:25:58;;;;;;;4.53;1.65;;;1.90;90.80;;;;;;4994479;28;20058;-74
2021/04/16 01:28:25;;;;;;;2.63;1.90;;;1.90;90.80;;;;;;4981984;28;20065;-74
2021/04/16 01:31:06;;;;;;;3.03;1.73;;;2.00;90.90;;;;;;4981913;28;20026;-75
2021/04/16 01:33:34;;;;;;;4.57;1.67;;;1.90;91.00;;;;;;4974285;28;20050;-76
2021/04/16 01:36:01;;;;;;;3.50;2.03;;;2.00;91.20;;;;;;4974980;28;20369;-74
2021/04/16 01:38:28;;;;;;;3.70;2.10;;;2.00;91.10;;;;;;4971816;28;20403;-75
2021/04/16 01:40:54;;;;;;;3.38;1.85;;;2.10;91.10;;;;;;4974693;28;20380;-74
2021/04/16 01:43:34;;;;;;;3.85;2.05;;;2.10;91.10;;;;;;4974076;28;20034;-74
2021/04/16 01:46:13;;;;;;;6.10;2.45;;;2.10;91.20;;;;;;4973385;28;20484;-75
2021/04/16 01:48:59;;;;;;;3.92;2.30;;;2.10;91.20;;;;;;4984156;28;20050;-74
2021/04/16 01:51:32;;;;;;;3.22;1.50;;;2.10;91.40;;;;;;4974203;28;20372;-76
2021/04/16 01:54:14;;;;;;;3.40;1.90;;;2.10;91.40;;;;;;4957651;28;20495;-76
2021/04/16 01:56:42;;;;;;;3.03;1.80;;;2.10;91.60;;;;;;4978748;28;20039;-75
2021/04/16 01:59:13;;;;;;;6.15;2.00;;;2.10;91.50;;;;;;4987164;28;20389;-74
2021/04/16 02:01:43;;;;;;;2.65;1.65;;;2.20;91.40;;;;;;4983120;28;20071;-75
2021/04/16 02:04:10;;;;;;;4.63;1.95;;;2.20;91.50;;;;;;4981162;28;20038;-74
2021/04/16 02:06:38;;;;;;;4.45;1.90;;;2.20;91.30;;;;;;4973863;28;20038;-74
2021/04/16 02:09:09;;;;;;;3.25;1.98;;;2.20;91.40;;;;;;4978464;28;20058;-75
2021/04/16 02:11:36;;;;;;;;;;;2.20;91.50;;;;;;4979277;28;20031;-75
2021/04/16 02:14:05;;;;;;;2.83;1.70;;;2.20;91.60;;;;;;4974190;28;19910;-76
2021/04/16 02:16:33;;;;;;;2.20;1.40;;;2.30;91.60;;;;;;4973523;28;20031;-76
2021/04/16 02:19:00;;;;;;;3.13;1.60;;;2.20;91.60;;;;;;4973251;28;20042;-76
2021/04/16 02:21:26;;;;;;;4.63;2.15;;;2.20;91.70;;;;;;4973549;28;20027;-75
2021/04/16 02:23:52;;;;;;;3.53;1.95;;;2.30;91.90;;;;;;4973580;28;20027;-75
2021/04/16 02:26:19;;;;;;;4.57;2.10;;;2.20;92.10;;;;;;4973442;28;20047;-76
2021/04/16 02:28:45;;;;;;;4.13;2.55;;;2.30;92.10;;;;;;4979523;28;20392;-76
2021/04/16 02:31:11;;;;;;;4.13;2.45;;;2.30;92.20;;;;;;4979757;28;20046;-75
2021/04/16 02:33:37;;;;;;;2.75;1.77;;;2.30;92.10;;;;;;4973441;28;20051;-75
2021/04/16 02:36:04;;;;;;;5.32;2.65;;;2.40;92.20;;;;;;4973639;28;20034;-75
2021/04/16 02:38:30;;;;;;;3.55;2.08;;;2.40;92.30;;;;;;4973419;28;20038;-75
2021/04/16 02:40:56;;;;;;;3.55;2.30;;;2.50;92.20;;;;;;4957118;28;20034;-75
2021/04/16 02:43:23;;;;;;;4.75;2.65;;;2.50;92.20;;;;;;4989757;28;20053;-75
2021/04/16 02:45:49;;;;;;;5.85;2.70;;;2.50;92.20;;;;;;4980446;28;20460;-75
2021/04/16 02:48:16;;;;;;;6.80;3.35;;;2.60;92.20;;;;;;4984203;28;20050;-75
2021/04/16 02:50:42;;;;;;;4.97;3.00;;;2.60;92.20;;;;;;4955537;28;20026;-75
2021/04/16 02:53:08;;;;;;;4.43;2.90;;;2.60;92.30;;;;;;4972514;28;20058;-75
2021/04/16 02:55:34;;;;;;;3.88;2.95;;;2.70;92.50;;;;;;4973183;28;20361;-75
2021/04/16 02:58:01;;;;;;;4.72;2.50;;;2.60;92.40;;;;;;4973298;28;20042;-74
2021/04/16 03:00:29;;;;;;;5.22;2.40;;;2.60;92.50;;;;;;4980774;28;20045;-75
2021/04/16 03:02:56;;;;;;;8.27;3.28;;;2.50;92.50;;;;;;4980003;28;20042;-75
2021/04/16 03:05:22;;;;;;;4.30;2.28;;;2.50;92.60;;;;;;4973017;28;20145;-74
2021/04/16 03:07:50;;;;;;;4.80;3.78;;;2.40;92.80;;;;;;4983932;28;20049;-75
2021/04/16 03:10:17;;;;;;;4.60;2.55;;;2.40;93.00;;;;;;4973513;28;20046;-75
2021/04/16 03:12:43;;;;;;;6.97;2.70;;;2.40;93.10;;;;;;4972969;28;20034;-76
2021/04/16 03:15:10;;;;;;;6.38;2.58;;;2.30;93.40;;;;;;4973564;28;20035;-75
2021/04/16 03:17:36;;;;;;;4.45;2.28;;;2.30;93.80;;;;;;4972976;28;20031;-75
2021/04/16 03:20:04;;;;;;;6.55;3.08;;;2.20;94.30;;;;;;4969143;28;20034;-74
2021/04/16 03:22:31;;;;;;;4.90;2.63;;;2.10;94.70;;;;;;4992187;28;20063;-74
2021/04/16 03:24:57;;;;;;;7.72;3.35;;;2.10;95.20;;;;;;4970828;28;20050;-75
2021/04/16 03:27:23;;;;;;;5.78;2.92;;;2.10;95.60;;;;;;4982490;28;20472;-75
2021/04/16 03:29:49;;;;;;;5.18;3.50;;;2.10;96.10;;;;;;4972721;28;20047;-76
2021/04/16 03:32:16;;;;;;;5.35;3.70;;;2.00;96.90;;;;;;4983596;28;20042;-75
2021/04/16 03:34:42;;;;;;;8.85;4.10;;;2.00;97.20;;;;;;4981124;28;20035;-75
2021/04/16 03:37:08;;;;;;;5.13;3.17;;;1.90;97.90;;;;;;4980232;28;20030;-76
2021/04/16 03:39:34;;;;;;;7.03;3.53;;;1.90;98.30;;;;;;4972573;28;20399;-75
2021/04/16 03:42:02;;;;;;;5.15;3.33;;;1.80;98.70;;;;;;4973118;28;20042;-75
2021/04/16 03:44:28;;;;;;;6.25;3.90;;;1.80;99.50;;;;;;4992015;28;20102;-75
2021/04/16 03:46:54;;;;;;;6.30;4.10;;;1.80;99.90;;;;;;4975487;28;20023;-75
2021/04/16 03:49:20;;;;;;;5.13;3.88;;;1.60;99.90;;;;;;4972719;28;20034;-75
2021/04/16 03:51:54;;;;;;;7.68;4.25;;;1.60;99.90;;;;;;4972933;28;20031;-75
2021/04/16 03:54:21;;;;;;;6.75;4.50;;;1.60;99.90;;;;;;4972363;28;20039;-72
2021/04/16 03:56:47;;;;;;;6.90;4.35;;;1.60;99.90;;;;;;4974912;28;20034;-75
2021/04/16 03:59:14;;;;;;;5.57;3.50;;;1.50;99.90;;;;;;4986776;28;20054;-74
2021/04/16 04:01:40;;;;;;;7.18;5.25;;;1.50;99.90;;;;;;4984928;28;20039;-75
2021/04/16 04:04:06;;;;;;;6.75;4.70;;;1.40;99.90;;;;;;4976381;28;20038;-75
2021/04/16 04:06:33;;;;;;;8.63;5.20;;;1.40;99.90;;;;;;4975207;28;20412;-75
2021/04/16 04:08:59;;;;;;;7.05;4.70;;;1.40;99.90;;;;;;4975395;28;20484;-76
2021/04/16 04:11:25;;;;;;;10.23;5.10;;;1.40;99.90;;;;;;4988268;28;20046;-75
2021/04/16 04:13:51;;;;;;;8.35;5.43;;;1.40;99.90;;;;;;4976925;28;20031;-75
2021/04/16 04:16:18;;;;;;;8.43;5.10;;;1.30;99.90;;;;;;4976140;28;20031;-75
2021/04/16 04:18:44;;;;;;;7.55;5.13;;;1.30;99.90;;;;;;4976219;28;20039;-75
2021/04/16 04:21:11;;;;;;;9.65;6.40;;;1.20;99.90;;;;;;4988127;28;20491;-75
2021/04/16 04:23:37;;;;;;;7.95;4.35;;;1.20;99.90;;;;;;4983436;28;20034;-75
2021/04/16 04:26:03;;;;;;;7.38;4.95;;;1.10;99.90;;;;;;4975775;28;20377;-74
2021/04/16 04:28:30;;;;;;;7.60;5.53;;;1.00;99.90;;;;;;4980080;28;20038;-75
2021/04/16 04:30:56;;;;;;;7.68;4.15;;;1.00;99.90;;;;;;4975807;28;20031;-75
2021/04/16 04:33:23;;;;;;;5.70;4.40;;;0.90;99.90;;;;;;4985626;28;20483;-75
2021/04/16 04:35:49;;;;;;;8.55;4.90;;;0.90;99.90;;;;;;4983773;28;20038;-75
2021/04/16 04:38:16;;;;;;;7.57;4.60;;;0.90;99.90;;;;;;4975846;28;20097;-76
2021/04/16 04:40:42;;;;;;;7.35;4.88;;;0.90;99.90;;;;;;4958113;28;20035;-76
2021/04/16 04:43:09;;;;;;;7.72;4.88;;;0.90;99.90;;;;;;4975365;28;20110;-78
2021/04/16 04:45:35;;;;;;;9.18;5.20;;;0.90;99.90;;;;;;4975564;28;20043;-78
2021/04/16 04:48:02;;;;;;;9.00;5.15;;;0.90;99.90;;;;;;4984729;28;20141;-80
2021/04/16 04:50:29;;;;;;;8.68;5.40;;;0.90;99.90;;;;;;4984460;28;20739;-77
2021/04/16 04:52:56;;;;;;;9.38;6.95;;;0.90;99.90;;;;;;4962429;28;20130;-78
2021/04/16 04:55:29;;;;;;;7.72;5.35;;;1.00;99.90;;;;;;4977842;28;20039;-77
2021/04/16 04:57:57;;;;;;;7.95;4.90;;;1.10;99.90;;;;;;4989944;28;20039;-78
2021/04/16 05:00:25;;;;;;;5.93;5.10;;;1.20;99.90;;;;;;4996652;28;20053;-77
2021/04/16 05:02:52;;;;;;;7.28;5.47;;;1.20;99.90;;;;;;4995593;28;20380;-78
2021/04/16 05:05:20;;;;;;;7.60;5.03;;;1.20;99.90;;;;;;4975366;28;20038;-79
2021/04/16 05:07:46;;;;;;;9.60;5.70;;;1.30;99.90;;;;;;4975018;28;20034;-79
2021/04/16 05:10:14;;;;;;;7.13;5.05;;;1.30;99.90;;;;;;4975151;28;20465;-79
2021/04/16 05:12:40;;;;;;;6.00;4.78;;;1.40;99.90;;;;;;4957843;28;20039;-78
2021/04/16 05:15:08;;;;;;;7.32;4.80;;;1.60;99.90;;;;;;4975197;28;20042;-78
2021/04/16 05:17:34;;;;;;;5.30;4.47;;;2.20;99.90;;;;;;4983453;28;20057;-77
2021/04/16 05:20:01;;;;;;;6.53;4.10;;;2.90;99.90;;;;;;4989460;28;20330;-77
2021/04/16 05:22:28;;;;;;;7.07;4.22;;;3.50;99.90;;;;;;4975989;28;20033;-77
2021/04/16 05:24:54;;;;;;;5.45;4.40;;;4.00;96.40;;;;;;4975875;28;20065;-77
2021/04/16 05:27:23;;;;;;;5.47;4.00;;;4.30;94.10;;;;;;4976422;28;20051;-76
2021/04/16 05:29:49;;;;;;;9.07;4.00;;;4.40;92.50;;;;;;4981835;28;20059;-77
2021/04/16 05:32:16;;;;;;;6.30;3.75;;;4.50;91.30;;;;;;4974754;28;20035;-78
2021/04/16 05:34:45;;;;;;;5.90;3.97;;;4.70;90.50;;;;;;4974803;28;20030;-78
2021/04/16 05:37:13;;;;;;;5.57;3.90;;;4.90;89.90;;;;;;4985735;28;20042;-78
2021/04/16 05:39:39;;;;;;;5.25;3.83;;;4.90;88.70;;;;;;4974003;28;20034;-79
2021/04/16 05:42:06;;;;;;;6.93;3.92;;;4.80;88.70;;;;;;4942313;28;20503;-79
2021/04/16 05:44:32;;;;;;;6.10;4.20;;;5.20;87.10;;;;;;4974026;28;20039;-78
2021/04/16 05:46:59;;;;;;;8.95;3.58;;;5.40;85.30;;;;;;4974799;28;20042;-78
2021/04/16 05:49:26;;;;;;;7.45;4.00;;;5.90;82.30;;;;;;4979659;28;20035;-78
2021/04/16 05:51:56;;;;;;;7.70;4.05;;;5.70;80.40;;;;;;4973115;28;20051;-77
2021/04/16 05:54:22;;;;;;;6.35;4.30;;;4.80;83.60;;;;;;4983939;28;20042;-78
2021/04/16 05:56:48;;;;;;;5.97;4.22;;;4.30;86.80;;;;;;4970733;28;20030;-77
2021/04/16 05:59:15;;;;;;;7.65;4.15;;;3.90;89.90;;;;;;4982135;28;21749;-78
2021/04/16 06:01:43;;;;;;;5.63;4.55;;;3.70;90.60;;;;;;4993592;28;20375;-78
2021/04/16 06:04:18;;;;;;;7.82;4.38;;;3.60;91.40;;;;;;4971501;28;20046;-74
2021/04/16 06:06:45;;;;;;;9.45;5.07;;;3.50;92.20;;;;;;4982825;28;20059;-74
2021/04/16 06:09:11;;;;;;;6.25;4.63;;;3.40;92.90;;;;;;4975528;28;20050;-77
2021/04/16 06:11:38;;;;;;;5.72;4.30;;;3.50;93.40;;;;;;4992427;28;20030;-82
2021/04/16 06:14:04;;;;;;;8.27;4.97;;;3.50;93.20;;;;;;4973964;28;20035;-83
2021/04/16 06:16:32;;;;;;;6.18;4.60;;;3.80;92.70;;;;;;4974152;28;20034;-80
2021/04/16 06:18:58;;;;;;;5.15;3.22;;;4.30;92.00;;;;;;4975445;28;20045;-79
2021/04/16 06:21:24;;;;;;;6.03;4.13;;;5.50;88.20;;;;;;4974449;28;20038;-78
2021/04/16 06:23:51;;;;;;;5.63;4.13;;;6.00;82.30;;;;;;4975325;28;20405;-86
2021/04/16 06:26:18;;;;;;;6.05;3.70;;;6.30;80.20;;;;;;4974825;28;20404;-85
2021/04/16 06:28:45;;;;;;;4.45;3.58;;;6.40;78.30;;;;;;4976542;28;20046;-84
2021/04/16 06:31:14;;;;;;;5.07;3.53;;;6.60;77.10;;;;;;4989760;28;20051;-87
2021/04/16 06:33:40;;;;;;;5.68;3.78;;;6.50;76.90;;;;;;4976787;28;20044;-84
2021/04/16 06:36:12;;;;;;;4.93;3.17;;;6.90;75.80;;;;;;4975665;28;20038;-87
2021/04/16 06:38:44;;;;;;;4.13;3.25;;;7.20;73.90;;;;;;4975558;28;20027;-88
2021/04/16 06:41:20;;;;;;;4.05;3.22;;;7.10;72.90;;;;;;4975365;28;20034;-86
2021/04/16 06:43:51;;;;;;;5.47;3.92;;;7.00;73.50;;;;;;4977502;28;20046;-79
2021/04/16 06:46:37;;;;;;;6.82;3.25;;;6.90;73.10;;;;;;4979036;28;20043;-83
2021/04/16 06:49:07;;;;;;;4.65;3.45;;;7.20;72.60;;;;;;4978614;28;20066;-83
2021/04/16 06:51:38;;;;;;;5.93;3.80;;;8.00;70.10;;;;;;4956695;28;20035;-85
2021/04/16 06:54:11;;;;;;;4.72;3.35;;;8.30;67.90;;;;;;4975019;28;20449;-76
2021/04/16 06:56:45;;;;;;;5.18;3.47;;;8.30;68.10;;;;;;4978677;28;20456;-82
2021/04/16 06:59:20;;;;;;;6.03;3.58;;;8.20;67.50;;;;;;4982370;28;20054;-80
2021/04/16 07:01:51;;;;;;;4.45;3.30;;;8.00;68.10;;;;;;4966755;28;20050;-83
2021/04/16 07:04:45;;;;;;;4.40;3.53;;;8.00;67.60;;;;;;4983330;28;20392;-85
2021/04/16 07:07:17;;;;;;;5.30;3.20;;;8.10;66.20;;;;;;4972979;28;20049;-84
2021/04/16 07:09:47;;;;;;;4.82;3.42;;;7.40;67.50;;;;;;4993215;28;20034;-83
2021/04/16 07:12:20;;;;;;;4.78;3.15;;;8.20;66.00;;;;;;4992962;28;20031;-82
2021/04/16 07:14:59;;;;;;;6.40;3.13;;;8.80;63.50;;;;;;4957923;28;20038;-84
2021/04/16 07:17:37;;;;;;;5.13;4.05;;;9.10;62.70;;;;;;4975781;28;20034;-84
2021/04/16 07:20:04;;;;;;;5.82;3.55;;;9.90;59.70;;;;;;4973314;28;20051;-84
2021/04/16 07:22:43;;;;;;;8.45;3.30;;;9.30;60.60;;;;;;4976225;28;20380;-84
2021/04/16 07:25:22;;;;;;;5.35;2.67;;;9.70;60.60;;;;;;4976164;28;20503;-82
2021/04/16 07:27:56;;;;;;;5.05;3.63;;;9.00;60.40;;;;;;4977361;28;20046;-83
2021/04/16 07:30:36;;;;;;;3.83;3.00;;;8.20;62.70;;;;;;4958855;28;20051;-81
2021/04/16 07:33:03;;;;;;;4.18;3.03;;;8.10;62.80;;;;;;4979181;28;20039;-84
2021/04/16 07:35:32;;;;;;;4.72;3.42;;;8.20;63.10;;;;;;4988825;28;20479;-84
2021/04/16 07:38:27;;;;;;;5.88;3.78;;;8.60;61.20;;;;;;4990778;28;20027;-82
2021/04/16 07:41:15;;;;;;;5.43;3.33;;;8.70;59.90;;;;;;4980384;28;20045;-82
2021/04/16 07:43:43;;;;;;;6.55;3.72;;;8.70;60.80;;;;;;4979972;28;20038;-81
2021/04/16 07:46:34;;;;;;;7.47;3.45;;;8.10;61.80;;;;;;4995329;28;20057;-85
2021/04/16 07:49:10;;;;;;;4.72;3.38;;;8.20;61.90;;;;;;4987667;28;20034;-82
2021/04/16 07:51:37;;;;;;;5.00;3.25;;;8.50;61.30;;;;;;4976465;28;20037;-82
2021/04/16 07:54:18;;;;;;;5.65;2.90;;;8.70;60.50;;;;;;4992270;28;20049;-80
2021/04/16 07:56:47;;;;;;;5.63;3.30;;;8.50;61.00;;;;;;4993403;28;20039;-81
2021/04/16 07:59:17;;;;;;;4.90;3.25;;;8.90;60.30;;;;;;4977850;28;20049;-82
2021/04/16 08:01:46;;;;;;;4.55;3.08;;;9.40;58.20;;;;;;4993307;28;20577;-82
2021/04/16 08:04:21;;;;;;;5.72;3.55;;;9.50;58.10;;;;;;4974907;28;20053;-81
2021/04/16 08:06:51;;;;;;;5.68;2.92;;;9.50;58.60;;;;;;4983166;28;20433;-82
2021/04/16 08:09:26;;;;;;;4.38;2.92;;;9.40;56.90;;;;;;4975323;28;20046;-79
2021/04/16 08:12:09;;;;;;;6.30;3.17;;;9.10;57.60;;;;;;4975835;28;20042;-80
2021/04/16 08:14:39;;;;;;;6.93;3.90;;;9.00;57.30;;;;;;4972551;28;20038;-81
2021/04/16 08:17:24;;;;;;;6.05;3.72;;;9.00;56.90;;;;;;4975992;28;20428;-82
2021/04/16 08:19:51;;;;;;;5.78;3.40;;;8.20;58.50;;;;;;4993834;28;20042;-79
2021/04/16 08:22:29;;;;;;;4.45;3.05;;;7.60;59.60;;;;;;4984520;28;20034;-78
2021/04/16 08:25:04;;;;;;;4.60;3.58;;;7.50;60.10;;;;;;4963584;28;20371;-78
2021/04/16 08:27:42;;;;;;;5.15;3.53;;;7.70;60.20;;;;;;4992311;28;20046;-80
2021/04/16 08:30:14;;;;;;;5.47;3.67;;;7.80;61.20;;;;;;5001606;28;20464;-77
2021/04/16 08:32:47;;;;;;;4.43;2.80;;;8.50;59.00;;;;;;4991833;28;20043;-78
2021/04/16 08:35:27;;;;;;;4.90;2.30;;;8.60;56.80;;;;;;4975392;28;20042;-76
2021/04/16 08:38:09;;;;;;;5.40;3.50;;;8.60;56.40;;;;;;4975410;28;20038;-77
2021/04/16 08:40:40;;;;;;;7.28;3.22;;;7.50;59.50;;;;;;4991212;28;20050;-78
2021/04/16 08:43:10;;;;;;;5.20;3.00;;;7.00;61.30;;;;;;4974317;28;20384;-78
2021/04/16 08:45:40;;;;;;;4.18;2.72;;;6.80;62.00;;;;;;4974742;28;20384;-77
2021/04/16 08:48:16;;;;;;;6.80;2.90;;;6.90;62.00;;;;;;4972107;28;20046;-78
2021/04/16 08:50:52;;;;;;;4.20;2.70;;;7.20;61.20;;;;;;4975425;28;20042;-78
2021/04/16 08:53:19;;;;;;;4.95;2.65;;;7.40;60.30;;;;;;4980317;28;20047;-78
2021/04/16 08:55:49;;;;;;;3.10;1.95;;;8.80;58.40;;;;;;4979610;28;20030;-79
2021/04/16 08:58:27;;;;;;;3.42;2.25;;;8.10;57.90;;;;;;4984916;28;20042;-76
2021/04/16 09:01:16;;;;;;;3.33;2.13;;;7.70;58.20;;;;;;4963304;28;20046;-78
2021/04/16 09:03:54;;;;;;;4.60;2.53;;;7.30;60.20;;;;;;4986910;28;20030;-79
2021/04/16 09:06:45;;;;;;;2.28;1.77;;;7.00;61.50;;;;;;4959127;28;20046;-78
2021/04/16 09:09:33;;;;;;;4.75;2.13;;;7.00;61.70;;;;;;4974930;28;20046;-76
2021/04/16 09:11:59;;;;;;;3.42;2.38;;;8.80;58.10;;;;;;4974696;28;20030;-76
2021/04/16 09:14:26;;;;;;;4.43;1.73;;;9.50;57.20;;;;;;4993770;28;20019;-77
2021/04/16 09:17:00;;;;;;;2.90;2.13;;;11.30;54.40;;;;;;4974376;28;20396;-78
2021/04/16 09:19:26;;;;;;;2.38;1.65;;;10.60;53.20;;;;;;4971549;28;20030;-77
2021/04/16 09:22:05;;;;;;;2.53;2.00;;;10.60;53.30;;;;;;4975463;28;20030;-77
2021/04/16 09:24:54;;;;;;;3.33;2.25;;;9.20;54.60;;;;;;4976570;28;20046;-79
2021/04/16 09:27:25;;;;;;;3.13;1.65;;;9.90;54.80;;;;;;4972430;28;20050;-79
2021/04/16 09:30:21;;;;;;;2.00;1.65;;;11.40;51.00;;;;;;4973608;28;20062;-78
2021/04/16 09:32:54;;;;;;;4.22;1.88;;;10.80;51.50;;;;;;4982968;28;20042;-77
2021/04/16 09:35:26;;;;;;;3.78;1.85;;;9.30;53.40;;;;;;4973699;28;20440;-77
2021/04/16 09:38:24;;;;;;;4.07;2.00;;;9.50;53.40;;;;;;4973882;28;20074;-77
2021/04/16 09:41:19;;;;;;;2.78;2.25;;;9.40;54.50;;;;;;4985079;28;20035;-79
2021/04/16 09:43:51;;;;;;;2.50;1.70;;;9.70;53.60;;;;;;4956165;28;20052;-77
2021/04/16 09:46:33;;;;;;;1.88;1.20;;;9.10;53.70;;;;;;4974136;28;20042;-77
2021/04/16 09:49:09;;;;;;;2.05;1.38;;;9.00;53.50;;;;;;4974209;28;20049;-77
2021/04/16 09:51:41;;;;;;;3.50;1.95;;;9.10;53.70;;;;;;4957975;28;20519;-78
2021/04/16 09:54:13;;;;;;;2.65;1.50;;;10.20;52.00;;;;;;4972610;28;20038;-78
2021/04/16 09:57:02;;;;;;;3.53;1.35;;;9.50;52.60;;;;;;4972621;28;20051;-78
2021/04/16 09:59:35;;;;;;;4.20;1.63;;;9.40;53.50;;;;;;4973517;28;20038;-77
2021/04/16 10:02:10;;;;;;;2.45;1.70;;;9.00;53.20;;;;;;4973278;28;20038;-77
2021/04/16 10:04:46;;;;;;;2.35;1.50;;;8.40;54.70;;;;;;4972242;28;20050;-77
2021/04/16 10:07:13;;;;;;;2.67;1.70;;;7.90;55.00;;;;;;4974553;28;20494;-76
2021/04/16 10:09:40;;;;;;;1.88;1.38;;;7.60;56.30;;;;;;4973071;28;20058;-78
2021/04/16 10:12:14;;;;;;;3.17;1.55;;;8.00;55.60;;;;;;4968888;28;20384;-78
2021/04/16 10:14:41;;;;;;;3.47;1.50;;;8.00;55.80;;;;;;4973187;28;20131;-78
2021/04/16 10:17:13;;;;;;;2.20;1.50;;;8.10;55.90;;;;;;4973592;28;20031;-76
2021/04/16 10:20:17;;;;;;;2.17;1.30;;;8.50;55.00;;;;;;4981650;28;20030;-78
2021/04/16 10:22:44;;;;;;;5.22;1.63;;;8.20;55.10;;;;;;4969042;28;20046;-78
2021/04/16 10:41:31;;;;;;;4.53;1.75;;;7.50;57.30;;;;;;4953792;28;20035;-77
2021/04/16 12:40:10;;;;;;;2.92;1.15;;;7.60;58.30;;;;;;4974267;28;20038;-80
2021/04/16 12:42:46;;;;;;;4.22;1.23;;;7.90;58.10;;;;;;4975374;28;20155;-79
2021/04/16 12:45:21;;;;;;;2.47;1.25;;;8.20;57.50;;;;;;4975747;28;20453;-80
2021/04/16 12:47:58;;;;;;;2.25;1.08;;;8.20;57.20;;;;;;4975081;28;20026;-79
2021/04/16 12:50:35;;;;;;;3.50;1.42;;;8.10;57.00;;;;;;4989535;28;20043;-77
2021/04/16 12:53:09;;;;;;;2.90;1.55;;;8.40;57.30;;;;;;4963669;28;20046;-79
2021/04/16 12:55:43;;;;;;;1.80;1.00;;;8.60;56.10;;;;;;4982888;28;20364;-79
2021/04/16 12:58:43;;;;;;;3.90;1.33;;;8.80;56.00;;;;;;4983856;28;20034;-79
2021/04/16 13:01:24;;;;;;;2.88;1.08;;;8.80;56.10;;;;;;4978190;28;20054;-80
2021/04/16 13:03:57;;;;;;;2.15;1.27;;;9.00;55.40;;;;;;4992329;28;20038;-79
2021/04/16 13:06:32;;;;;;;1.70;1.00;;;8.70;55.60;;;;;;4954431;28;20103;-80
2021/04/16 13:09:06;;;;;;;1.75;1.20;;;8.40;55.80;;;;;;4975274;28;20035;-81
2021/04/16 13:11:41;;;;;;;2.33;1.10;;;8.30;55.90;;;;;;4974786;28;20383;-79
2021/04/16 13:14:10;;;;;;;1.70;1.27;;;8.20;56.00;;;;;;4974970;28;20057;-79
2021/04/16 13:16:37;;;;;;;3.28;1.30;;;8.30;56.50;;;;;;4982971;28;20038;-80
2021/04/16 13:19:09;;;;;;;2.55;1.25;;;8.20;56.80;;;;;;4976367;28;20026;-79
2021/04/16 13:21:39;;;;;;;3.47;1.00;;;8.30;56.90;;;;;;4973869;28;20057;-79
2021/04/16 13:24:07;;;;;;;2.42;1.23;;;8.50;56.00;;;;;;4974923;28;20460;-81
2021/04/16 13:26:34;;;;;;;1.58;1.08;;;8.20;56.30;;;;;;4957635;28;20042;-81
2021/04/16 13:29:00;;;;;;;2.90;1.13;;;8.20;56.80;;;;;;4974389;28;20038;-79
2021/04/16 13:31:30;;;;;;;2.40;1.33;;;8.30;56.20;;;;;;4984802;28;20041;-79
2021/04/16 13:33:58;;;;;;;1.60;1.00;;;8.50;56.20;;;;;;4984720;28;20362;-79
2021/04/16 13:36:27;;;;;;;1.58;0.95;;;8.40;55.90;;;;;;4982946;28;20038;-79
2021/04/16 13:38:53;;;;;;;1.85;0.95;;;8.50;56.10;;;;;;4983452;28;20031;-80
2021/04/16 13:41:20;;;;;;;2.13;1.00;;;8.40;55.90;;;;;;4987488;28;20424;-81
2021/04/16 13:43:49;;;;;;;1.75;0.98;;;8.70;55.40;;;;;;4967514;28;20038;-80
2021/04/16 13:46:22;;;;;;;2.08;1.15;;;8.80;54.80;;;;;;4974925;28;20033;-79
2021/04/16 13:48:48;;;;;;;4.00;1.73;;;8.80;54.70;;;;;;4974592;28;20043;-79
2021/04/16 13:51:17;;;;;;;2.53;1.10;;;9.00;54.70;;;;;;4986441;28;20042;-80
2021/04/16 13:53:45;;;;;;;3.10;1.13;;;8.90;54.30;;;;;;4983349;28;20041;-79
2021/04/16 13:56:13;;;;;;;2.42;1.00;;;9.00;54.40;;;;;;4984487;28;20034;-79
2021/04/16 13:58:39;;;;;;;2.65;1.13;;;9.10;54.10;;;;;;4980302;28;20035;-79
2021/04/16 14:01:12;;;;;;;2.65;1.52;;;9.00;54.40;;;;;;4986704;28;20494;-79
2021/04/16 14:03:42;;;;;;;2.05;0.80;;;9.00;54.30;;;;;;4989838;28;20042;-79
2021/04/16 14:06:16;;;;;;;2.10;0.95;;;8.90;54.90;;;;;;4997346;28;20045;-79
2021/04/16 14:09:07;;;;;;;2.40;1.30;;;8.70;54.90;;;;;;4961441;28;20035;-79
2021/04/16 14:11:35;;;;;;;5.10;1.20;;;8.40;56.10;;;;;;4979138;28;20057;-79
2021/04/16 14:14:13;;;;;;;3.00;1.30;;;8.40;56.10;;;;;;4960469;28;20660;-79
2021/04/16 14:16:42;;;;;;;2.22;1.10;;;8.40;56.50;;;;;;4973737;28;20030;-81
2021/04/16 14:19:20;;;;;;;2.85;1.48;;;8.40;56.70;;;;;;4974101;28;20030;-80
2021/04/16 14:21:51;;;;;;;2.65;1.05;;;8.10;57.30;;;;;;4982226;28;20064;-79
2021/04/16 14:24:18;;;;;;;1.83;1.15;;;8.30;57.40;;;;;;4984555;28;20404;-80
2021/04/16 14:26:46;;;;;;;2.65;1.00;;;8.20;57.30;;;;;;4983584;28;20394;-80
2021/04/16 14:29:12;;;;;;;2.28;1.40;;;8.10;57.60;;;;;;4973807;28;20042;-80
2021/04/16 14:31:40;;;;;;;2.15;1.13;;;8.30;57.60;;;;;;4956455;28;20074;-80
2021/04/16 14:34:09;;;;;;;3.67;1.10;;;8.50;57.10;;;;;;4983797;28;20046;-78
2021/04/16 14:36:35;;;;;;;5.93;1.52;;;8.20;57.60;;;;;;4987031;28;20035;-78
2021/04/16 14:39:04;;;;;;;2.55;1.02;;;8.30;57.60;;;;;;4973854;28;20038;-80
2021/04/16 14:41:32;;;;;;;1.77;1.30;;;8.20;57.50;;;;;;4971414;28;20388;-80
2021/04/16 14:43:58;;;;;;;3.60;1.42;;;8.10;57.10;;;;;;4981155;28;20038;-78
2021/04/16 14:46:26;;;;;;;2.67;1.30;;;8.10;57.80;;;;;;4973333;28;20038;-79
2021/04/16 14:48:53;;;;;;;2.08;1.30;;;8.20;57.50;;;;;;4963115;28;20051;-80
2021/04/16 14:51:24;;;;;;;1.80;1.20;;;8.10;57.10;;;;;;4956128;28;20045;-79
2021/04/16 14:53:53;;;;;;;2.28;1.20;;;8.10;56.80;;;;;;4973183;28;20039;-79
2021/04/16 14:56:20;;;;;;;2.03;0.90;;;8.10;57.40;;;;;;4973481;28;20039;-79
2021/04/16 14:58:50;;;;;;;3.28;1.60;;;8.00;56.80;;;;;;4968847;28;20043;-80
2021/04/16 15:01:18;;;;;;;2.83;1.05;;;8.00;57.50;;;;;;4973568;28;20042;-79
2021/04/16 15:03:45;;;;;;;4.22;1.23;;;8.10;57.50;;;;;;4975532;28;20054;-79
2021/04/16 15:06:21;;;;;;;4.90;1.50;;;8.20;57.60;;;;;;4989636;28;20034;-79
2021/04/16 15:08:56;;;;;;;2.30;1.40;;;7.90;57.90;;;;;;4973527;28;20026;-79
2021/04/16 15:11:26;;;;;;;2.22;1.30;;;8.00;57.90;;;;;;4973493;28;20043;-79
2021/04/16 15:13:53;;;;;;;3.15;1.35;;;8.10;58.20;;;;;;4973138;28;20038;-80
2021/04/16 15:16:21;;;;;;;4.03;1.60;;;7.90;58.50;;;;;;4973304;28;20091;-80
2021/04/16 15:18:48;;;;;;;2.63;1.45;;;7.80;59.20;;;;;;4973009;28;20038;-80
2021/04/16 15:21:22;;;;;;;2.28;1.23;;;7.80;58.90;;;;;;4978924;28;20060;-80
2021/04/16 15:23:49;;;;;;;3.20;1.50;;;7.80;59.40;;;;;;4974274;28;20058;-79
2021/04/16 15:26:18;;;;;;;1.77;1.30;;;7.70;59.90;;;;;;4980932;28;20046;-79
2021/04/16 15:28:57;;;;;;;2.92;1.27;;;7.60;60.50;;;;;;4974130;28;20035;-78